Time;durP1;ratioP1;P1;durP2;ratioP2;P2;SDS_P1;SDS_P2;PMS_P1;PMS_P2;Temp;Humidity;BMP_temperature;BMP_pressure;BME280_temperature;BME280_humidity;BME280_pressure;Samples;Min_cycle;Max_cycle;Signal;HPM_P1;HPM_P2
2022/12/29 00:01:33;;;;;;;;;;;;;;;26.25;49.54;97873.42;595654;238;62762;-75
2022/12/29 00:04:01;;;;;;;;;;;;;;;26.24;49.50;97877.18;595656;238;67182;-72
2022/12/29 00:06:28;;;;;;;;;;;;;;;26.22;49.54;97873.98;595640;238;67034;-72
2022/12/29 00:08:56;;;;;;;;;;;;;;;26.22;49.48;97876.69;595683;238;64855;-72
2022/12/29 00:11:25;;;;;;;;;;;;;;;26.22;50.32;97871.30;595671;238;67056;-72
2022/12/29 00:16:40;;;;;;;;;;;;;;;26.21;50.00;97880.45;595663;238;66243;-72
2022/12/29 00:35:07;;;;;;;;;;;;;;;26.20;49.98;97886.14;595654;238;67058;-72
2022/12/29 00:35:23;;;;;;;;;;;;;;;26.13;51.58;97902.61;595643;238;67078;-71
2022/12/29 00:46:08;;;;;;;;;;;;;;;26.09;51.82;97902.39;595614;238;66040;-75
2022/12/29 00:51:21;;;;;;;;;;;;;;;26.09;50.42;97910.47;600466;236;67120;-75
2022/12/29 00:53:48;;;;;;;;;;;;;;;26.09;50.26;97909.67;600424;236;66983;-75
2022/12/29 00:56:16;;;;;;;;;;;;;;;26.07;51.33;97909.94;600505;236;65383;-74
2022/12/29 00:58:43;;;;;;;;;;;;;;;26.06;49.77;97911.03;600554;236;67167;-75
2022/12/29 01:01:11;;;;;;;;;;;;;;;26.06;50.28;97912.93;600537;236;66863;-75
2022/12/29 01:03:38;;;;;;;;;;;;;;;26.05;51.39;97904.02;600704;236;65626;-75
2022/12/29 01:06:07;;;;;;;;;;;;;;;26.04;51.08;97907.02;600492;236;66827;-75
2022/12/29 01:08:35;;;;;;;;;;;;;;;26.04;51.23;97907.02;600630;236;64837;-74
2022/12/29 01:11:03;;;;;;;;;;;;;;;26.02;50.90;97904.59;600652;236;63671;-74
2022/12/29 01:13:31;;;;;;;;;;;;;;;26.02;51.21;97903.80;600490;236;65332;-74
2022/12/29 01:15:59;;;;;;;;;;;;;;;26.02;50.66;97909.98;600368;236;64848;-71
2022/12/29 01:18:26;;;;;;;;;;;;;;;26.01;50.62;97907.58;600528;236;63041;-71
2022/12/29 01:20:56;;;;;;;;;;;;;;;26.01;50.47;97907.58;600543;236;64998;-71
2022/12/29 01:23:23;;;;;;;;;;;;;;;26.00;50.52;97898.70;600278;236;64832;-71
2022/12/29 01:25:51;;;;;;;;;;;;;;;25.99;50.51;97899.77;600677;236;64884;-71
2022/12/29 01:28:18;;;;;;;;;;;;;;;25.98;52.56;97892.79;600750;236;64626;-74
2022/12/29 01:30:45;;;;;;;;;;;;;;;25.98;51.56;97889.30;600636;236;66843;-74
2022/12/29 01:33:13;;;;;;;;;;;;;;;25.98;51.56;97886.61;600644;236;62412;-74
2022/12/29 01:35:41;;;;;;;;;;;;;;;25.97;50.98;97888.47;600675;236;66759;-74
2022/12/29 01:38:08;;;;;;;;;;;;;;;25.96;51.34;97881.48;600693;236;66643;-74
2022/12/29 01:40:37;;;;;;;;;;;;;;;25.95;51.45;97871.81;600693;236;64982;-74
2022/12/29 01:43:06;;;;;;;;;;;;;;;25.95;50.86;97866.42;600352;236;66785;-74
2022/12/29 01:45:34;;;;;;;;;;;;;;;25.95;51.43;97865.63;600646;236;64604;-74
2022/12/29 01:48:03;;;;;;;;;;;;;;;25.95;51.09;97868.32;600603;235;65054;-74
2022/12/29 01:50:32;;;;;;;;;;;;;;;25.93;50.31;97851.63;600772;236;66929;-74
2022/12/29 01:53:01;;;;;;;;;;;;;;;25.92;49.71;97845.45;600566;236;66652;-74
2022/12/29 01:55:30;;;;;;;;;;;;;;;25.93;50.81;97838.17;600818;236;62416;-74
2022/12/29 01:57:59;;;;;;;;;;;;;;;25.91;49.50;97828.47;600778;236;64900;-75
2022/12/29 02:00:26;;;;;;;;;;;;;;;25.91;51.58;97823.08;600740;236;67511;-75
2022/12/29 02:02:54;;;;;;;;;;;;;;;25.89;50.78;97817.20;600748;236;66071;-75
2022/12/29 02:05:35;;;;;;;;;;;;;;;25.89;50.35;97819.06;600748;236;67093;-75
2022/12/29 02:08:03;;;;;;;;;;;;;;;25.88;50.33;97815.57;600679;236;64551;-72
2022/12/29 02:10:32;;;;;;;;;;;;;;;25.88;50.36;97820.95;600779;236;63042;-73
2022/12/29 02:12:59;;;;;;;;;;;;;;;25.87;50.68;97822.05;600776;236;67102;-72
2022/12/29 02:15:28;;;;;;;;;;;;;;;25.86;50.96;97823.16;600786;236;66907;-72
2022/12/29 02:18:06;;;;;;;;;;;;;;;25.86;50.06;97817.77;600756;236;63685;-72
2022/12/29 02:20:44;;;;;;;;;;;;;;;25.85;50.24;97813.45;600725;236;66770;-72
2022/12/29 02:23:19;;;;;;;;;;;;;;;25.84;50.61;97811.86;600787;236;66828;-72
2022/12/29 02:26:04;;;;;;;;;;;;;;;25.83;50.09;97809.40;600721;236;65001;-72
2022/12/29 02:28:33;;;;;;;;;;;;;;;25.83;50.55;97809.40;600785;236;67259;-72
2022/12/29 02:31:08;;;;;;;;;;;;;;;25.81;51.10;97809.70;600704;236;66920;-72
2022/12/29 02:33:47;;;;;;;;;;;;;;;25.81;50.05;97809.70;600750;236;64946;-72
2022/12/29 02:36:19;;;;;;;;;;;;;;;25.81;51.10;97809.70;600796;236;67162;-72
2022/12/29 02:38:53;;;;;;;;;;;;;;;25.79;50.59;97809.17;600776;236;64415;-72
2022/12/29 02:41:25;;;;;;;;;;;;;;;25.78;50.91;97802.20;600819;236;64971;-72
2022/12/29 02:43:54;;;;;;;;;;;;;;;25.77;50.96;97795.19;600778;236;67043;-72
2022/12/29 02:46:27;;;;;;;;;;;;;;;25.77;50.74;97803.26;600707;236;66664;-72
2022/12/29 02:48:54;;;;;;;;;;;;;;;25.76;50.65;97798.97;599762;236;65230;-72
2022/12/29 02:51:23;;;;;;;;;;;;;;;25.75;50.86;97791.96;599026;236;67927;-72
2022/12/29 02:56:37;;;;;;;;;;;;;;;25.75;49.93;97796.55;599002;236;65684;-72
2022/12/29 02:59:05;;;;;;;;;;;;;;;25.73;50.46;97791.47;599090;236;66807;-72
2022/12/29 03:01:38;;;;;;;;;;;;;;;25.73;51.09;97790.64;599147;236;66618;-72
2022/12/29 03:04:07;;;;;;;;;;;;;;;25.72;50.06;97787.15;599494;236;64933;-72
2022/12/29 03:06:43;;;;;;;;;;;;;;;25.72;50.61;97787.15;598500;236;66708;-72
2022/12/29 03:09:15;;;;;;;;;;;;;;;25.72;51.54;97789.05;599514;236;66417;-72
2022/12/29 03:17:23;;;;;;;;;;;;;;;25.68;50.54;97784.23;599012;236;66995;-72
2022/12/29 03:19:53;;;;;;;;;;;;;;;25.67;50.48;97768.34;598812;236;65059;-72
2022/12/29 03:22:36;;;;;;;;;;;;;;;25.66;51.41;97777.52;599113;236;64784;-72
2022/12/29 03:25:05;;;;;;;;;;;;;;;25.66;51.44;97777.52;599131;236;46017;-72
2022/12/29 03:27:37;;;;;;;;;;;;;;;25.64;51.39;97782.37;599193;236;65146;-72
2022/12/29 03:30:06;;;;;;;;;;;;;;;25.63;50.55;97773.50;598764;236;67161;-72
2022/12/29 03:32:35;;;;;;;;;;;;;;;25.63;50.88;97776.20;599162;236;66698;-72
2022/12/29 03:35:04;;;;;;;;;;;;;;;25.61;50.79;97783.74;598683;235;62883;-72
2022/12/29 03:37:39;;;;;;;;;;;;;;;25.61;50.71;97783.74;598810;236;66502;-72
2022/12/29 03:40:07;;;;;;;;;;;;;;;25.61;51.40;97782.95;598734;236;66642;-72
2022/12/29 03:42:36;;;;;;;;;;;;;;;25.60;50.73;97778.66;599632;236;63837;-72
2022/12/29 03:45:05;;;;;;;;;;;;;;;25.58;50.45;97784.31;598834;236;67027;-72
2022/12/29 03:47:33;;;;;;;;;;;;;;;25.59;51.59;97777.03;599266;236;66688;-72
2022/12/29 03:50:01;;;;;;;;;;;;;;;25.58;50.58;97786.20;596073;236;62395;-72
2022/12/29 03:52:32;;;;;;;;;;;;;;;25.58;51.01;97788.89;592404;238;68180;-72
2022/12/29 03:54:59;;;;;;;;;;;;;;;25.57;51.63;97784.61;595696;238;66973;-72
2022/12/29 03:57:27;;;;;;;;;;;;;;;25.56;51.14;97793.75;595669;238;65154;-72
2022/12/29 03:59:56;;;;;;;;;;;;;;;25.55;51.02;97792.95;595786;236;44066;-72
2022/12/29 04:02:24;;;;;;;;;;;;;;;25.54;50.38;97793.25;597879;236;66274;-75
2022/12/29 04:04:52;;;;;;;;;;;;;;;25.55;51.79;97794.84;595633;238;65644;-75
2022/12/29 04:07:20;;;;;;;;;;;;;;;25.53;51.33;97799.70;595698;238;64478;-75
2022/12/29 04:09:49;;;;;;;;;;;;;;;25.53;53.13;97794.31;595726;236;45398;-75
2022/12/29 04:12:18;;;;;;;;;;;;;;;25.52;51.56;97804.28;595795;236;43736;-75
2022/12/29 04:14:46;;;;;;;;;;;;;;;25.51;50.98;97796.48;595676;238;66716;-72
2022/12/29 04:17:13;;;;;;;;;;;;;;;25.51;51.54;97807.24;595623;238;66602;-72
2022/12/29 04:19:42;;;;;;;;;;;;;;;25.50;50.94;97816.41;595664;238;65812;-71
2022/12/29 04:22:11;;;;;;;;;;;;;;;25.49;51.35;97810.23;595698;238;66665;-72
2022/12/29 04:24:39;;;;;;;;;;;;;;;25.49;51.55;97812.92;595656;238;66756;-72
2022/12/29 04:27:07;;;;;;;;;;;;;;;25.47;50.87;97813.19;595656;238;65067;-71
2022/12/29 04:29:52;;;;;;;;;;;;;;;25.46;50.79;97811.59;595721;238;41823;-72
2022/12/29 04:32:21;;;;;;;;;;;;;;;25.46;51.30;97811.59;595812;236;45721;-72
2022/12/29 04:34:50;;;;;;;;;;;;;;;25.45;50.96;97818.08;595702;238;62691;-71
2022/12/29 04:37:18;;;;;;;;;;;;;;;25.44;51.07;97813.76;595651;238;64023;-72
2022/12/29 04:39:46;;;;;;;;;;;;;;;25.44;52.06;97827.21;595628;238;67218;-72
2022/12/29 04:42:14;;;;;;;;;;;;;;;25.43;51.32;97824.82;595667;238;64968;-75
2022/12/29 04:44:43;;;;;;;;;;;;;;;25.43;51.02;97824.82;595705;238;67254;-75
2022/12/29 04:47:13;;;;;;;;;;;;;;;25.42;51.65;97823.98;595682;237;49261;-75
2022/12/29 04:49:45;;;;;;;;;;;;;;;25.41;51.21;97824.29;600205;235;42257;-76
2022/12/29 04:52:23;;;;;;;;;;;;;;;25.41;51.75;97829.67;600816;236;45278;-72
2022/12/29 04:54:52;;;;;;;;;;;;;;;25.38;51.68;97825.65;600762;236;67117;-73
2022/12/29 04:57:20;;;;;;;;;;;;;;;25.39;50.86;97831.83;600762;236;62774;-72
2022/12/29 04:59:49;;;;;;;;;;;;;;;25.37;50.97;97829.44;600813;236;45605;-72
2022/12/29 05:02:18;;;;;;;;;;;;;;;25.37;51.07;97833.98;600821;236;66906;-72
2022/12/29 05:04:46;;;;;;;;;;;;;;;25.37;51.53;97828.61;600825;236;62750;-72
2022/12/29 05:07:13;;;;;;;;;;;;;;;25.36;51.58;97835.08;600729;236;66695;-72
2022/12/29 05:09:41;;;;;;;;;;;;;;;25.36;50.62;97835.08;600773;236;68044;-75
2022/12/29 05:12:09;;;;;;;;;;;;;;;25.35;51.95;97836.17;600780;236;64972;-76
2022/12/29 05:14:38;;;;;;;;;;;;;;;25.34;51.66;97846.11;600747;236;44592;-75
2022/12/29 05:20:28;;;;;;;;;;;;;;;25.33;51.27;97844.52;600921;236;37144;-75
2022/12/29 05:22:57;;;;;;;;;;;;;;;25.33;50.95;97846.41;600784;236;45512;-75
2022/12/29 05:25:24;;;;;;;;;;;;;;;25.32;51.50;97845.61;600783;236;66746;-76
2022/12/29 05:27:57;;;;;;;;;;;;;;;25.32;52.19;97845.61;597400;236;46358;-76
2022/12/29 05:30:26;;;;;;;;;;;;;;;25.32;51.15;97848.30;600803;236;45490;-74
2022/12/29 05:32:53;;;;;;;;;;;;;;;25.31;51.92;97845.88;600779;236;66623;-74
2022/12/29 05:35:21;;;;;;;;;;;;;;;25.32;51.63;97842.09;600840;236;62788;-74
2022/12/29 05:37:48;;;;;;;;;;;;;;;25.33;52.29;97855.27;600792;236;66845;-74
2022/12/29 05:40:16;;;;;;;;;;;;;;;25.32;52.17;97845.61;600813;236;63855;-74
2022/12/29 05:42:44;;;;;;;;;;;;;;;25.32;51.05;97842.09;600782;236;63767;-74
2022/12/29 05:45:30;;;;;;;;;;;;;;;25.33;51.48;97849.89;600931;236;40017;-74
2022/12/29 05:48:14;;;;;;;;;;;;;;;25.33;51.54;97852.59;600199;236;46497;-75
2022/12/29 05:50:45;;;;;;;;;;;;;;;25.35;50.68;97853.12;587232;237;45002;-75
2022/12/29 05:53:13;;;;;;;;;;;;;;;25.35;50.87;97841.56;595619;236;64422;-76
2022/12/29 05:55:42;;;;;;;;;;;;;;;25.36;50.45;97849.33;595681;238;67297;-75
2022/12/29 05:58:10;;;;;;;;;;;;;;;25.36;50.78;97860.09;595708;238;62779;-76
2022/12/29 06:00:37;;;;;;;;;;;;;;;25.37;50.75;97856.34;595698;238;64173;-76
2022/12/29 06:03:05;;;;;;;;;;;;;;;25.38;52.10;97857.94;595700;238;67057;-76
2022/12/29 06:05:35;;;;;;;;;;;;;;;25.39;52.15;97856.05;595665;238;64856;-75
2022/12/29 06:08:02;;;;;;;;;;;;;;;25.39;53.79;97854.16;595660;238;64314;-75
2022/12/29 06:10:31;;;;;;;;;;;;;;;25.39;52.48;97867.61;595577;238;64768;-75
2022/12/29 06:13:03;;;;;;;;;;;;;;;25.40;51.94;97874.61;595765;236;43706;-72
2022/12/29 06:15:33;;;;;;;;;;;;;;;25.42;52.60;97874.32;595664;238;67383;-73
2022/12/29 06:18:01;;;;;;;;;;;;;;;25.44;51.53;97874.85;595607;236;66661;-73
2022/12/29 06:20:28;;;;;;;;;;;;;;;25.46;51.56;97880.77;595684;238;64884;-73
2022/12/29 06:22:56;;;;;;;;;;;;;;;25.46;51.41;97876.19;595645;238;64530;-73
2022/12/29 06:25:24;;;;;;;;;;;;;;;25.49;51.15;97884.78;595657;238;67138;-73
2022/12/29 06:27:52;;;;;;;;;;;;;;;25.49;51.78;97884.78;595672;238;65741;-72
2022/12/29 06:30:20;;;;;;;;;;;;;;;25.51;53.24;97882.59;595723;238;64068;-73
2022/12/29 06:32:48;;;;;;;;;;;;;;;25.52;52.85;97881.53;595553;238;67180;-73
2022/12/29 06:35:15;;;;;;;;;;;;;;;25.53;52.86;97880.44;595555;238;64935;-73
2022/12/29 06:37:45;;;;;;;;;;;;;;;25.54;52.48;97876.69;595575;236;44075;-72
2022/12/29 06:40:12;;;;;;;;;;;;;;;25.56;52.54;97888.75;594784;238;64550;-72
2022/12/29 06:42:45;;;;;;;;;;;;;;;25.57;51.03;97886.89;594582;236;45059;-73
2022/12/29 06:45:32;;;;;;;;;;;;;;;25.58;51.34;97881.20;595514;237;48040;-73
2022/12/29 06:48:00;;;;;;;;;;;;;;;25.60;51.76;97880.94;596252;235;65420;-73
2022/12/29 06:50:28;;;;;;;;;;;;;;;25.62;51.89;97878.78;600701;236;62837;-68
2022/12/29 06:52:55;;;;;;;;;;;;;;;25.63;52.34;97881.17;600667;236;66734;-70
2022/12/29 06:55:22;;;;;;;;;;;;;;;25.68;49.26;97885.73;600787;236;66762;-74
2022/12/29 06:57:50;;;;;;;;;;;;;;;25.72;49.64;97892.14;600673;236;64932;-69
2022/12/29 07:00:17;;;;;;;;;;;;;;;25.72;46.11;97900.22;600131;236;64860;-70
2022/12/29 07:02:47;;;;;;;;;;;;;;;25.75;49.47;97891.58;600657;236;45481;-72
2022/12/29 07:05:14;;;;;;;;;;;;;;;25.78;46.40;97892.91;600767;236;63676;-72
2022/12/29 07:07:42;;;;;;;;;;;;;;;25.80;49.31;97896.92;600629;236;67134;-72
2022/12/29 07:10:10;;;;;;;;;;;;;;;25.82;47.50;97905.53;600568;236;67052;-73
2022/12/29 07:12:37;;;;;;;;;;;;;;;25.86;50.14;97898.55;600703;236;62775;-72
2022/12/29 07:15:05;;;;;;;;;;;;;;;25.87;48.33;97899.34;600706;236;67098;-70
2022/12/29 07:17:33;;;;;;;;;;;;;;;25.89;47.90;97897.98;600767;236;66820;-73
2022/12/29 07:20:00;;;;;;;;;;;;;;;25.90;51.37;97896.89;600740;236;65196;-72
2022/12/29 07:22:29;;;;;;;;;;;;;;;25.93;49.21;97895.52;600582;236;48307;-73
2022/12/29 07:24:57;;;;;;;;;;;;;;;25.93;49.56;97895.52;600803;236;64800;-73
2022/12/29 07:27:24;;;;;;;;;;;;;;;25.97;49.17;97895.75;600574;236;65082;-72
2022/12/29 07:29:52;;;;;;;;;;;;;;;25.99;48.09;97902.47;600719;236;67353;-73
2022/12/29 07:32:19;;;;;;;;;;;;;;;26.00;45.11;97895.18;600770;236;66875;-73
2022/12/29 07:34:47;;;;;;;;;;;;;;;26.03;49.09;97897.34;600732;236;62763;-73
2022/12/29 07:37:17;;;;;;;;;;;;;;;26.04;49.21;97901.62;600674;236;68054;-73
2022/12/29 07:39:45;;;;;;;;;;;;;;;26.04;50.50;97897.04;600714;236;67015;-72
2022/12/29 07:42:12;;;;;;;;;;;;;;;26.05;49.68;97898.63;600720;236;64902;-75
2022/12/29 07:44:42;;;;;;;;;;;;;;;26.06;47.86;97902.95;600563;236;46933;-74
2022/12/29 07:47:27;;;;;;;;;;;;;;;26.06;49.19;97905.64;600276;236;37799;-71
2022/12/29 07:49:55;;;;;;;;;;;;;;;26.06;49.77;97907.55;599082;236;64930;-71
2022/12/29 07:52:22;;;;;;;;;;;;;;;26.06;47.55;97905.64;598747;236;67105;-71
2022/12/29 07:54:49;;;;;;;;;;;;;;;26.08;48.79;97903.48;598838;236;66867;-72
2022/12/29 07:57:17;;;;;;;;;;;;;;;26.09;49.05;97896.20;598789;236;62742;-74
2022/12/29 07:59:44;;;;;;;;;;;;;;;26.08;48.44;97903.48;598629;236;64844;-74
2022/12/29 08:02:12;;;;;;;;;;;;;;;26.08;48.44;97903.48;599375;236;64787;-73
2022/12/29 08:04:39;;;;;;;;;;;;;;;26.10;48.89;97905.87;598683;236;62767;-73
2022/12/29 08:07:07;;;;;;;;;;;;;;;26.11;49.06;97908.30;599592;236;64935;-73
2022/12/29 08:09:35;;;;;;;;;;;;;;;26.10;48.68;97906.67;599097;236;64433;-76
2022/12/29 08:12:02;;;;;;;;;;;;;;;26.11;48.83;97897.53;599074;236;62756;-74
2022/12/29 08:14:30;;;;;;;;;;;;;;;26.12;49.45;97901.81;599115;236;66806;-70
2022/12/29 08:16:57;;;;;;;;;;;;;;;26.13;48.87;97906.11;598911;236;67148;-76
2022/12/29 08:19:25;;;;;;;;;;;;;;;26.13;49.64;97911.49;590494;236;62808;-70
2022/12/29 08:21:53;;;;;;;;;;;;;;;26.15;48.39;97910.42;590402;240;67082;-72
2022/12/29 08:24:22;;;;;;;;;;;;;;;26.16;46.58;97902.05;597084;236;64853;-72
2022/12/29 08:26:49;;;;;;;;;;;;;;;26.20;48.48;97907.69;598646;236;62761;-73
2022/12/29 08:29:17;;;;;;;;;;;;;;;26.18;47.41;97901.77;599073;236;67068;-72
2022/12/29 08:31:44;;;;;;;;;;;;;;;26.20;48.57;97896.91;598863;236;66797;-71
2022/12/29 08:34:12;;;;;;;;;;;;;;;26.19;49.63;97888.03;598954;236;64963;-73
2022/12/29 08:36:41;;;;;;;;;;;;;;;26.19;49.35;97888.03;598707;236;66655;-73
2022/12/29 08:39:09;;;;;;;;;;;;;;;26.20;48.65;97889.63;598472;236;66937;-72
2022/12/29 08:41:37;;;;;;;;;;;;;;;26.21;49.47;97887.73;598978;236;64916;-73
2022/12/29 08:44:05;;;;;;;;;;;;;;;26.21;47.67;97885.03;598983;236;65088;-71
2022/12/29 08:46:32;;;;;;;;;;;;;;;26.24;43.24;97881.77;599266;236;65049;-71
2022/12/29 08:49:00;;;;;;;;;;;;;;;26.26;45.82;97877.70;597643;234;62783;-74
2022/12/29 08:51:27;;;;;;;;;;;;;;;26.28;46.18;97872.05;595556;238;64883;-72
2022/12/29 08:53:55;;;;;;;;;;;;;;;26.28;45.87;97877.44;595469;238;64796;-74
2022/12/29 08:56:23;;;;;;;;;;;;;;;26.29;46.55;97870.95;595523;238;64934;-70
2022/12/29 08:58:51;;;;;;;;;;;;;;;26.29;44.71;97866.36;595538;238;64477;-70
2022/12/29 09:01:20;;;;;;;;;;;;;;;26.31;45.65;97860.70;595500;238;67734;-78
2022/12/29 09:03:48;;;;;;;;;;;;;;;26.30;45.44;97857.20;595570;238;65125;-71
2022/12/29 09:06:17;;;;;;;;;;;;;;;26.31;43.03;97853.41;595555;238;64925;-70
2022/12/29 09:08:44;;;;;;;;;;;;;;;26.33;45.37;97853.94;595466;236;64825;-68
2022/12/29 09:11:13;;;;;;;;;;;;;;;26.33;45.71;97853.94;592699;238;63111;-70
2022/12/29 09:13:41;;;;;;;;;;;;;;;26.34;45.16;97850.14;589092;241;64908;-72
2022/12/29 09:16:08;;;;;;;;;;;;;;;26.33;46.52;97850.44;589043;241;65890;-71
2022/12/29 09:18:36;;;;;;;;;;;;;;;26.32;45.26;97840.73;589139;241;62852;-72
2022/12/29 09:21:04;;;;;;;;;;;;;;;26.32;45.29;97838.84;589058;241;65094;-73
2022/12/29 09:23:33;;;;;;;;;;;;;;;26.32;45.94;97838.84;589112;241;64422;-72
2022/12/29 09:26:00;;;;;;;;;;;;;;;26.31;46.73;97826.46;589097;241;65196;-70
2022/12/29 09:28:28;;;;;;;;;;;;;;;26.32;44.37;97828.05;589066;241;64952;-73
2022/12/29 09:30:56;;;;;;;;;;;;;;;26.32;44.44;97811.89;589018;241;67412;-73
2022/12/29 09:33:24;;;;;;;;;;;;;;;26.32;43.44;97817.28;589142;241;65029;-68
2022/12/29 09:35:56;;;;;;;;;;;;;;;26.32;44.29;97808.39;589036;241;67215;-73
2022/12/29 09:38:24;;;;;;;;;;;;;;;26.32;44.60;97811.89;589055;241;67080;-74
2022/12/29 09:40:55;;;;;;;;;;;;;;;26.31;44.33;97804.91;591567;238;65173;-74
2022/12/29 09:43:34;;;;;;;;;;;;;;;26.30;45.03;97800.61;594492;234;64939;-71
2022/12/29 09:46:06;;;;;;;;;;;;;;;26.29;44.65;97798.98;595616;238;66627;-72
2022/12/29 09:48:35;;;;;;;;;;;;;;;26.30;44.35;97797.09;597277;235;65089;-72
2022/12/29 09:51:04;;;;;;;;;;;;;;;26.30;45.23;97787.14;600613;236;64155;-69
2022/12/29 09:53:33;;;;;;;;;;;;;;;26.30;43.55;97792.53;600726;236;66927;-73
2022/12/29 09:56:03;;;;;;;;;;;;;;;26.30;42.70;97786.31;600659;236;64908;-69
2022/12/29 09:58:35;;;;;;;;;;;;;;;26.32;41.70;97782.25;600656;236;65082;-73
2022/12/29 10:01:04;;;;;;;;;;;;;;;26.34;42.29;97771.19;600667;236;66682;-75
2022/12/29 10:03:38;;;;;;;;;;;;;;;26.35;41.76;97773.61;600669;236;64927;-74
2022/12/29 10:06:11;;;;;;;;;;;;;;;26.35;42.60;97762.84;600506;234;64659;-74
2022/12/29 10:08:40;;;;;;;;;;;;;;;26.36;44.06;97760.94;600650;236;64385;-73
2022/12/29 10:11:25;;;;;;;;;;;;;;;26.37;43.98;97759.84;600516;234;62781;-69
2022/12/29 10:13:54;;;;;;;;;;;;;;;26.38;43.71;97764.12;600636;236;67146;-72
2022/12/29 10:16:28;;;;;;;;;;;;;;;26.39;41.83;97756.87;599993;236;66986;-72
2022/12/29 10:19:14;;;;;;;;;;;;;;;26.38;41.15;97755.24;600192;236;62939;-69
2022/12/29 10:21:43;;;;;;;;;;;;;;;26.38;45.52;97757.94;600655;236;67224;-72
2022/12/29 10:24:12;;;;;;;;;;;;;;;26.35;45.21;97760.14;600673;236;66908;-74
2022/12/29 10:26:41;;;;;;;;;;;;;;;26.35;45.55;97759.31;600539;236;63835;-74
2022/12/29 10:29:22;;;;;;;;;;;;;;;26.32;45.91;97752.61;600648;236;64886;-73
2022/12/29 10:31:57;;;;;;;;;;;;;;;26.32;46.33;97741.83;600706;236;64799;-74
2022/12/29 10:34:26;;;;;;;;;;;;;;;26.34;45.77;97739.66;600655;236;62842;-73
2022/12/29 10:36:56;;;;;;;;;;;;;;;26.34;47.13;97742.34;600735;236;67094;-72
2022/12/29 10:39:26;;;;;;;;;;;;;;;26.34;46.04;97734.27;600463;236;66822;-73
2022/12/29 10:42:07;;;;;;;;;;;;;;;26.35;47.37;97730.50;600595;236;65126;-73
2022/12/29 10:44:35;;;;;;;;;;;;;;;26.37;47.38;97729.39;600471;236;65009;-74
2022/12/29 10:47:06;;;;;;;;;;;;;;;26.37;45.60;97719.41;600560;236;67212;-74
2022/12/29 10:49:35;;;;;;;;;;;;;;;26.39;46.56;97721.83;595859;236;64994;-72
2022/12/29 10:52:04;;;;;;;;;;;;;;;26.38;46.30;97721.01;594167;238;67119;-68
2022/12/29 10:54:33;;;;;;;;;;;;;;;26.38;46.92;97718.31;594203;238;67814;-69
2022/12/29 10:57:02;;;;;;;;;;;;;;;26.40;45.81;97710.75;594257;238;64918;-71
2022/12/29 10:59:30;;;;;;;;;;;;;;;26.42;46.55;97713.16;593957;238;67152;-72
2022/12/29 11:02:00;;;;;;;;;;;;;;;26.42;46.31;97705.88;594066;238;66825;-71
2022/12/29 11:04:29;;;;;;;;;;;;;;;26.43;46.41;97703.98;594311;238;62668;-71
2022/12/29 11:06:58;;;;;;;;;;;;;;;26.44;46.84;97700.21;594143;238;64640;-72
2022/12/29 11:09:27;;;;;;;;;;;;;;;26.45;46.88;97685.63;593757;238;64806;-70
2022/12/29 11:11:55;;;;;;;;;;;;;;;26.45;46.50;97699.91;593677;236;63338;-71
2022/12/29 11:14:24;;;;;;;;;;;;;;;26.46;45.36;97689.92;594258;238;65098;-70
2022/12/29 11:16:59;;;;;;;;;;;;;;;26.48;46.52;97688.54;594092;238;64887;-70
2022/12/29 11:19:28;;;;;;;;;;;;;;;26.49;46.43;97692.86;594045;238;65017;-73
2022/12/29 11:21:56;;;;;;;;;;;;;;;26.50;44.83;97686.36;594288;238;67105;-67
2022/12/29 11:24:25;;;;;;;;;;;;;;;26.55;45.34;97689.02;593926;238;66860;-69
2022/12/29 11:26:57;;;;;;;;;;;;;;;26.59;45.67;97691.92;593744;238;62688;-68
2022/12/29 11:29:30;;;;;;;;;;;;;;;26.61;42.92;97681.66;593390;238;64642;-71
2022/12/29 11:31:59;;;;;;;;;;;;;;;26.63;44.80;97681.35;593685;238;67059;-68
2022/12/29 11:34:30;;;;;;;;;;;;;;;26.65;42.98;97679.17;594104;238;65055;-66
2022/12/29 11:37:08;;;;;;;;;;;;;;;26.68;44.74;97675.89;593617;238;67512;-68
2022/12/29 11:39:43;;;;;;;;;;;;;;;26.69;44.33;97681.00;594159;238;66912;-69
2022/12/29 11:42:12;;;;;;;;;;;;;;;26.70;43.92;97674.50;594048;237;64728;-73
2022/12/29 11:44:41;;;;;;;;;;;;;;;26.73;44.90;97668.53;594060;238;64901;-71
2022/12/29 11:47:10;;;;;;;;;;;;;;;26.73;43.15;97671.22;594276;238;64805;-71
2022/12/29 11:49:38;;;;;;;;;;;;;;;26.76;45.07;97669.84;595018;237;62773;-70
2022/12/29 11:52:08;;;;;;;;;;;;;;;26.76;43.04;97665.27;595440;238;67248;-71
2022/12/29 11:54:37;;;;;;;;;;;;;;;26.79;44.20;97669.25;595598;237;66831;-71
2022/12/29 11:57:12;;;;;;;;;;;;;;;26.79;43.32;97675.47;595695;237;65013;-72
2022/12/29 11:59:56;;;;;;;;;;;;;;;26.81;44.77;97669.77;595459;238;67643;-72
2022/12/29 12:02:32;;;;;;;;;;;;;;;26.82;44.99;97665.99;595522;237;67511;-72
2022/12/29 12:05:01;;;;;;;;;;;;;;;26.83;43.93;97662.19;595805;237;62807;-71
2022/12/29 12:07:36;;;;;;;;;;;;;;;26.85;43.54;97653.82;595212;238;67532;-71
2022/12/29 12:10:07;;;;;;;;;;;;;;;26.87;43.28;97654.30;595609;237;48145;-73
2022/12/29 12:12:36;;;;;;;;;;;;;;;26.89;44.35;97657.52;595360;238;65058;-73
2022/12/29 12:15:05;;;;;;;;;;;;;;;26.89;43.71;97654.81;595255;237;67229;-71
2022/12/29 12:17:38;;;;;;;;;;;;;;;26.90;44.44;97651.02;594469;236;47893;-72
2022/12/29 12:20:07;;;;;;;;;;;;;;;26.91;43.96;97650.73;595335;236;66068;-73
2022/12/29 12:22:36;;;;;;;;;;;;;;;26.92;44.16;97648.83;595459;236;66808;-73
2022/12/29 12:25:06;;;;;;;;;;;;;;;26.93;45.60;97651.25;595520;237;67406;-71
2022/12/29 12:27:36;;;;;;;;;;;;;;;26.96;42.73;97649.86;595457;237;65098;-71
2022/12/29 12:30:05;;;;;;;;;;;;;;;26.98;44.20;97645.77;595631;236;65134;-72
2022/12/29 12:32:48;;;;;;;;;;;;;;;26.99;42.30;97650.06;595549;238;64903;-72
2022/12/29 12:35:17;;;;;;;;;;;;;;;27.00;44.66;97650.86;595442;236;64989;-72
2022/12/29 12:38:02;;;;;;;;;;;;;;;27.01;43.28;97644.39;595398;238;64930;-72
2022/12/29 12:40:38;;;;;;;;;;;;;;;27.01;41.45;97647.88;582601;241;66116;-71
2022/12/29 12:43:16;;;;;;;;;;;;;;;27.01;45.60;97644.39;591816;238;62840;-70
2022/12/29 12:45:45;;;;;;;;;;;;;;;27.01;44.77;97644.39;595562;238;67165;-70
2022/12/29 12:48:14;;;;;;;;;;;;;;;27.00;44.38;97646.25;595596;237;66802;-71
2022/12/29 12:50:49;;;;;;;;;;;;;;;27.01;45.59;97650.58;595622;235;63673;-71
2022/12/29 12:53:27;;;;;;;;;;;;;;;27.02;45.48;97651.37;595429;236;67055;-70
2022/12/29 12:56:02;;;;;;;;;;;;;;;27.03;45.47;97652.17;595323;236;66891;-73
2022/12/29 12:58:47;;;;;;;;;;;;;;;27.03;43.94;97655.66;595470;238;65001;-72
2022/12/29 13:01:17;;;;;;;;;;;;;;;27.03;44.96;97647.56;595505;237;67096;-71
2022/12/29 13:03:46;;;;;;;;;;;;;;;27.05;44.97;97656.17;595567;237;66884;-72
2022/12/29 13:06:18;;;;;;;;;;;;;;;27.05;45.74;97656.17;595542;238;62772;-69
2022/12/29 13:09:03;;;;;;;;;;;;;;;27.07;45.18;97655.89;594632;238;64876;-68
2022/12/29 13:11:41;;;;;;;;;;;;;;;27.07;45.89;97653.98;595531;237;65464;-70
2022/12/29 13:14:10;;;;;;;;;;;;;;;27.08;45.12;97658.27;595512;236;65378;-73
2022/12/29 13:16:42;;;;;;;;;;;;;;;27.09;46.07;97657.20;595520;237;67297;-74
2022/12/29 13:19:20;;;;;;;;;;;;;;;27.10;45.38;97655.30;595398;237;67243;-72
2022/12/29 13:22:06;;;;;;;;;;;;;;;27.12;45.41;97666.56;595534;236;65162;-72
2022/12/29 13:24:41;;;;;;;;;;;;;;;27.13;45.61;97665.49;595468;237;67109;-77
2022/12/29 13:27:18;;;;;;;;;;;;;;;27.13;45.42;97663.59;595625;236;66956;-71
2022/12/29 13:29:56;;;;;;;;;;;;;;;27.13;46.51;97666.28;595557;236;65122;-82
2022/12/29 13:32:34;;;;;;;;;;;;;;;27.16;47.34;97670.30;595937;236;64858;-72
2022/12/29 13:35:06;;;;;;;;;;;;;;;27.15;44.94;97668.70;595312;238;65829;-73
2022/12/29 13:37:35;;;;;;;;;;;;;;;27.15;44.24;97669.50;595448;238;62780;-74
2022/12/29 13:40:05;;;;;;;;;;;;;;;27.17;45.64;97671.91;595566;237;64721;-76
2022/12/29 13:42:32;;;;;;;;;;;;;;;27.18;44.61;97671.63;595465;238;66984;-71